sensor_id;sensor_type;location;lat;lon;timestamp;pressure;altitude;pressure_sealevel;temperature;humidity
45937;BME280;31649;46.510;6.498;2023-03-11T07:23:10;93932.28;;;4.15;60.19
45937;BME280;31649;46.510;6.498;2023-03-11T07:25:35;93950.75;;;4.11;59.90
45937;BME280;31649;46.510;6.498;2023-03-11T07:28:01;93934.22;;;4.13;59.81
45937;BME280;31649;46.510;6.498;2023-03-11T07:30:26;93942.59;;;4.15;59.61
45937;BME280;31649;46.510;6.498;2023-03-11T07:32:52;93960.16;;;4.20;59.34
45937;BME280;31649;46.510;6.498;2023-03-11T07:35:17;93951.31;;;4.31;59.49
45937;BME280;31649;46.510;6.498;2023-03-11T07:37:43;93964.84;;;4.41;59.24
45937;BME280;31649;46.510;6.498;2023-03-11T07:40:09;93969.38;;;4.48;59.61
45937;BME280;31649;46.510;6.498;2023-03-11T07:42:35;93945.91;;;4.51;58.91
45937;BME280;31649;46.510;6.498;2023-03-11T07:45:00;93967.34;;;4.60;59.57
45937;BME280;31649;46.510;6.498;2023-03-11T07:47:26;93976.84;;;4.68;58.71
45937;BME280;31649;46.510;6.498;2023-03-11T07:49:52;93982.50;;;4.80;59.03
45937;BME280;31649;46.510;6.498;2023-03-11T07:52:17;93983.50;;;4.87;58.83
45937;BME280;31649;46.510;6.498;2023-03-11T07:54:43;93987.69;;;5.05;58.60
45937;BME280;31649;46.510;6.498;2023-03-11T07:57:09;93998.00;;;5.13;58.09
45937;BME280;31649;46.510;6.498;2023-03-11T07:59:41;93999.63;;;5.22;58.35
45937;BME280;31649;46.510;6.498;2023-03-11T08:02:08;94005.25;;;5.09;57.22
45937;BME280;31649;46.510;6.498;2023-03-11T08:04:33;94016.50;;;5.08;57.27
45937;BME280;31649;46.510;6.498;2023-03-11T08:06:59;94028.00;;;5.31;57.82
45937;BME280;31649;46.510;6.498;2023-03-11T08:09:24;94032.66;;;5.44;57.52
45937;BME280;31649;46.510;6.498;2023-03-11T08:11:50;94029.59;;;5.32;56.73
45937;BME280;31649;46.510;6.498;2023-03-11T08:14:16;94049.13;;;5.51;57.25
45937;BME280;31649;46.510;6.498;2023-03-11T08:16:41;94053.94;;;5.71;56.76
45937;BME280;31649;46.510;6.498;2023-03-11T08:19:10;94059.06;;;5.88;57.36
45937;BME280;31649;46.510;6.498;2023-03-11T08:21:35;94055.34;;;5.99;57.10
45937;BME280;31649;46.510;6.498;2023-03-11T08:24:01;94062.16;;;6.08;56.96
45937;BME280;31649;46.510;6.498;2023-03-11T08:26:27;94064.56;;;6.18;56.79
45937;BME280;31649;46.510;6.498;2023-03-11T08:28:53;94069.53;;;6.28;56.86
45937;BME280;31649;46.510;6.498;2023-03-11T08:31:24;94068.03;;;6.42;56.78
45937;BME280;31649;46.510;6.498;2023-03-11T08:33:52;94063.66;;;6.51;56.49
45937;BME280;31649;46.510;6.498;2023-03-11T08:36:18;94052.31;;;6.60;55.95
45937;BME280;31649;46.510;6.498;2023-03-11T08:38:44;94067.44;;;6.72;56.09
45937;BME280;31649;46.510;6.498;2023-03-11T08:41:09;94073.41;;;6.81;56.25
45937;BME280;31649;46.510;6.498;2023-03-11T08:43:35;94072.19;;;7.00;55.48
45937;BME280;31649;46.510;6.498;2023-03-11T08:46:02;94077.44;;;7.07;55.58
45937;BME280;31649;46.510;6.498;2023-03-11T08:48:28;94084.41;;;7.06;55.16
45937;BME280;31649;46.510;6.498;2023-03-11T08:50:54;94090.09;;;7.02;55.21
45937;BME280;31649;46.510;6.498;2023-03-11T08:53:23;94087.34;;;7.03;54.94
45937;BME280;31649;46.510;6.498;2023-03-11T08:55:50;94100.25;;;7.03;54.65
45937;BME280;31649;46.510;6.498;2023-03-11T08:58:17;94099.63;;;7.01;54.47
45937;BME280;31649;46.510;6.498;2023-03-11T09:00:43;94109.00;;;7.02;54.64
45937;BME280;31649;46.510;6.498;2023-03-11T09:03:09;94112.19;;;7.13;55.32
45937;BME280;31649;46.510;6.498;2023-03-11T09:05:34;94119.41;;;7.17;55.49
45937;BME280;31649;46.510;6.498;2023-03-11T09:08:01;94127.03;;;7.19;54.92
45937;BME280;31649;46.510;6.498;2023-03-11T09:10:27;94124.41;;;7.27;54.80
45937;BME280;31649;46.510;6.498;2023-03-11T09:12:52;94135.03;;;7.32;55.08
45937;BME280;31649;46.510;6.498;2023-03-11T09:15:18;94133.06;;;7.35;54.84
45937;BME280;31649;46.510;6.498;2023-03-11T09:17:43;94147.31;;;7.30;54.46
45937;BME280;31649;46.510;6.498;2023-03-11T09:20:11;94145.53;;;7.31;54.77
45937;BME280;31649;46.510;6.498;2023-03-11T09:22:37;94142.38;;;7.20;54.23
45937;BME280;31649;46.510;6.498;2023-03-11T09:25:03;94142.88;;;7.16;54.54
45937;BME280;31649;46.510;6.498;2023-03-11T09:27:28;94144.59;;;7.24;54.90
45937;BME280;31649;46.510;6.498;2023-03-11T09:29:54;94158.63;;;7.38;54.76
45937;BME280;31649;46.510;6.498;2023-03-11T09:32:20;94150.50;;;7.41;54.22
45937;BME280;31649;46.510;6.498;2023-03-11T09:34:45;94153.25;;;7.39;54.02
45937;BME280;31649;46.510;6.498;2023-03-11T09:37:11;94157.06;;;7.52;54.14
45937;BME280;31649;46.510;6.498;2023-03-11T09:39:36;94166.28;;;7.54;54.49
45937;BME280;31649;46.510;6.498;2023-03-11T09:44:41;94171.03;;;7.42;54.08
45937;BME280;31649;46.510;6.498;2023-03-11T09:50:19;94178.19;;;7.32;53.75
45937;BME280;31649;46.510;6.498;2023-03-11T09:55:51;94181.94;;;7.29;53.47
45937;BME280;31649;46.510;6.498;2023-03-11T10:01:21;94196.78;;;7.36;53.58
45937;BME280;31649;46.510;6.498;2023-03-11T10:03:50;94202.41;;;7.39;53.47
45937;BME280;31649;46.510;6.498;2023-03-11T10:06:26;94204.97;;;7.48;53.89
